WLF9634 EKCH-LGAV
Flight info
| Callsign | WLF9634 |
|---|---|
| Flight time | 2h 52m |
| Altitude | 37000 |
| Route | SIMEG Z493 XELOL DCT VAGON DCT REGLI DCT AMRAX DCT PARAK DCT RAXAD DCT MAKED UP20 ROPOX |
| Aircraft | B738/M-SDE2E3FGHIRWXY/LB1 |
Departure
| Time | 2026-05-04 19:04 |
|---|---|
| Airport | Copenhagen Kastrup Airport (EKCH) |
Arrival
| Time | 2026-05-04 21:57 |
|---|---|
| Airport | Athens Eleftherios Venizelos International Airport (LGAV) |
| Time | Latitude | Longitude | Altitude | Speed | Heading |
|---|---|---|---|---|---|
| 2026-05-04 18:22 | 55.62497 | 12.64892 | 24 ft | 0 kts | 78° |
| 2026-05-04 18:51 | 55.62493 | 12.64864 | 23 ft | 4 kts | 78° |
| 2026-05-04 18:52 | 55.62489 | 12.64817 | 23 ft | 4 kts | 89° |
| 2026-05-04 18:52 | 55.62494 | 12.64775 | 23 ft | 3 kts | 133° |
| 2026-05-04 18:52 | 55.62512 | 12.64747 | 23 ft | 4 kts | 163° |
| 2026-05-04 18:52 | 55.62535 | 12.64752 | 23 ft | 4 kts | 213° |
| 2026-05-04 18:53 | 55.62556 | 12.64771 | 26 ft | 2 kts | 180° |
| 2026-05-04 18:53 | 55.62580 | 12.64771 | 23 ft | 4 kts | 180° |
| 2026-05-04 18:53 | 55.62588 | 12.64771 | 23 ft | 0 kts | 180° |
| 2026-05-04 18:56 | 55.62584 | 12.64771 | 23 ft | 3 kts | 180° |
| 2026-05-04 18:56 | 55.62543 | 12.64770 | 25 ft | 7 kts | 180° |
| 2026-05-04 18:56 | 55.62500 | 12.64770 | 26 ft | 3 kts | 180° |
| 2026-05-04 18:57 | 55.62477 | 12.64770 | 24 ft | 3 kts | 179° |
| 2026-05-04 18:57 | 55.62454 | 12.64773 | 23 ft | 4 kts | 174° |
| 2026-05-04 18:57 | 55.62414 | 12.64781 | 25 ft | 8 kts | 176° |
| 2026-05-04 18:57 | 55.62348 | 12.64754 | 25 ft | 12 kts | 212° |
| 2026-05-04 18:58 | 55.62311 | 12.64649 | 25 ft | 0 kts | 244° |
| 2026-05-04 18:58 | 55.62307 | 12.64634 | 23 ft | 5 kts | 246° |
| 2026-05-04 18:58 | 55.62295 | 12.64581 | 24 ft | 5 kts | 248° |
| 2026-05-04 18:58 | 55.62293 | 12.64574 | 24 ft | 0 kts | 248° |
| 2026-05-04 18:59 | 55.62288 | 12.64549 | 23 ft | 8 kts | 248° |
| 2026-05-04 18:59 | 55.62247 | 12.64406 | 22 ft | 17 kts | 229° |
| 2026-05-04 18:59 | 55.62150 | 12.64303 | 24 ft | 14 kts | 208° |
| 2026-05-04 19:00 | 55.62067 | 12.64221 | 23 ft | 14 kts | 210° |
| 2026-05-04 19:00 | 55.61981 | 12.64159 | 23 ft | 13 kts | 204° |
| 2026-05-04 19:00 | 55.61901 | 12.64089 | 25 ft | 12 kts | 208° |
| 2026-05-04 19:00 | 55.61833 | 12.64009 | 25 ft | 12 kts | 218° |
| 2026-05-04 19:01 | 55.61764 | 12.63944 | 23 ft | 11 kts | 189° |
| 2026-05-04 19:01 | 55.61713 | 12.63943 | 25 ft | 10 kts | 175° |
| 2026-05-04 19:01 | 55.61670 | 12.63947 | 26 ft | 0 kts | 178° |
| 2026-05-04 19:02 | 55.61666 | 12.63947 | 29 ft | 3 kts | 176° |
| 2026-05-04 19:03 | 55.61639 | 12.63950 | 24 ft | 4 kts | 176° |
| 2026-05-04 19:03 | 55.61604 | 12.63953 | 28 ft | 7 kts | 178° |
| 2026-05-04 19:03 | 55.61545 | 12.63937 | 27 ft | 9 kts | 210° |
| 2026-05-04 19:03 | 55.61427 | 12.63763 | 25 ft | 44 kts | 221° |
| 2026-05-04 19:04 | 55.61041 | 12.63159 | 26 ft | 105 kts | 223° |
| 2026-05-04 19:04 | 55.60347 | 12.62100 | 24 ft | 156 kts | 220° |
| 2026-05-04 19:04 | 55.59467 | 12.60796 | 434 ft | 161 kts | 221° |
| 2026-05-04 19:04 | 55.58638 | 12.59572 | 1177 ft | 156 kts | 224° |
| 2026-05-04 19:05 | 55.57745 | 12.58226 | 1463 ft | 180 kts | 222° |
| 2026-05-04 19:05 | 55.56762 | 12.56792 | 1884 ft | 196 kts | 226° |
| 2026-05-04 19:05 | 55.55630 | 12.55257 | 2073 ft | 221 kts | 204° |
| 2026-05-04 19:05 | 55.54087 | 12.54501 | 2329 ft | 237 kts | 199° |
| 2026-05-04 19:06 | 55.52503 | 12.53659 | 2771 ft | 245 kts | 201° |
| 2026-05-04 19:06 | 55.50812 | 12.52666 | 3144 ft | 262 kts | 203° |
| 2026-05-04 19:06 | 55.49063 | 12.51602 | 3823 ft | 266 kts | 203° |
| 2026-05-04 19:06 | 55.47317 | 12.50527 | 4604 ft | 266 kts | 203° |
| 2026-05-04 19:07 | 55.45530 | 12.49624 | 5301 ft | 273 kts | 188° |
| 2026-05-04 19:07 | 55.43668 | 12.50182 | 5999 ft | 282 kts | 156° |
| 2026-05-04 19:07 | 55.42145 | 12.52402 | 6665 ft | 291 kts | 124° |
| 2026-05-04 19:07 | 55.41340 | 12.55708 | 6943 ft | 299 kts | 107° |
| 2026-05-04 19:08 | 55.40614 | 12.59153 | 6931 ft | 299 kts | 123° |
| 2026-05-04 19:08 | 55.39194 | 12.61739 | 7044 ft | 295 kts | 153° |
| 2026-05-04 19:08 | 55.37335 | 12.63251 | 7457 ft | 299 kts | 154° |
| 2026-05-04 19:08 | 55.35836 | 12.65749 | 7305 ft | 305 kts | 120° |
| 2026-05-04 19:09 | 55.35297 | 12.69328 | 7251 ft | 300 kts | 88° |
| 2026-05-04 19:09 | 55.35446 | 12.72886 | 7317 ft | 291 kts | 85° |
| 2026-05-04 19:09 | 55.35519 | 12.76436 | 7356 ft | 295 kts | 90° |
| 2026-05-04 19:09 | 55.35411 | 12.80092 | 7840 ft | 302 kts | 95° |
| 2026-05-04 19:10 | 55.35149 | 12.83767 | 8525 ft | 303 kts | 99° |
| 2026-05-04 19:10 | 55.34775 | 12.87427 | 9151 ft | 307 kts | 102° |
| 2026-05-04 19:10 | 55.34317 | 12.91116 | 9775 ft | 310 kts | 104° |
| 2026-05-04 19:10 | 55.33803 | 12.94831 | 10374 ft | 315 kts | 105° |
| 2026-05-04 19:11 | 55.33252 | 12.98572 | 10984 ft | 318 kts | 106° |
| 2026-05-04 19:11 | 55.32675 | 13.02347 | 11601 ft | 321 kts | 107° |
| 2026-05-04 19:11 | 55.32086 | 13.06113 | 12219 ft | 324 kts | 108° |
| 2026-05-04 19:11 | 55.31480 | 13.09946 | 12821 ft | 328 kts | 108° |
| 2026-05-04 19:12 | 55.30694 | 13.13733 | 13406 ft | 328 kts | 124° |
| 2026-05-04 19:12 | 55.27960 | 13.20161 | 14611 ft | 331 kts | 133° |
| 2026-05-04 19:12 | 55.26527 | 13.23322 | 15233 ft | 334 kts | 133° |
| 2026-05-04 19:13 | 55.25099 | 13.26496 | 15843 ft | 338 kts | 133° |
| 2026-05-04 19:13 | 55.23646 | 13.29759 | 16428 ft | 341 kts | 133° |
| 2026-05-04 19:13 | 55.22159 | 13.33120 | 16708 ft | 357 kts | 133° |
| 2026-05-04 19:13 | 55.20599 | 13.36658 | 16844 ft | 375 kts | 132° |
| 2026-05-04 19:14 | 55.18972 | 13.40366 | 16984 ft | 393 kts | 132° |
| 2026-05-04 19:14 | 55.17276 | 13.44242 | 17133 ft | 409 kts | 132° |
| 2026-05-04 19:14 | 55.15549 | 13.48197 | 17496 ft | 416 kts | 131° |
| 2026-05-04 19:14 | 55.13786 | 13.52243 | 18014 ft | 419 kts | 132° |
| 2026-05-04 19:15 | 55.12008 | 13.56317 | 18583 ft | 422 kts | 132° |
| 2026-05-04 19:15 | 55.10223 | 13.60399 | 19111 ft | 425 kts | 132° |
| 2026-05-04 19:15 | 55.08412 | 13.64527 | 19593 ft | 428 kts | 132° |
| 2026-05-04 19:15 | 55.06587 | 13.68678 | 20081 ft | 431 kts | 132° |
| 2026-05-04 19:16 | 55.04755 | 13.72837 | 20587 ft | 434 kts | 132° |
| 2026-05-04 19:16 | 55.02908 | 13.77024 | 21029 ft | 437 kts | 132° |
| 2026-05-04 19:16 | 55.01051 | 13.81224 | 21469 ft | 440 kts | 132° |
| 2026-05-04 19:16 | 54.99176 | 13.85458 | 21907 ft | 443 kts | 132° |
| 2026-05-04 19:17 | 54.97280 | 13.89732 | 22348 ft | 445 kts | 132° |
| 2026-05-04 19:17 | 54.95405 | 13.93952 | 22739 ft | 448 kts | 132° |
| 2026-05-04 19:17 | 54.93487 | 13.98262 | 23138 ft | 451 kts | 132° |
| 2026-05-04 19:17 | 54.91560 | 14.02582 | 23550 ft | 453 kts | 132° |
| 2026-05-04 19:18 | 54.89623 | 14.06921 | 23941 ft | 455 kts | 132° |
| 2026-05-04 19:18 | 54.87671 | 14.11284 | 24312 ft | 458 kts | 132° |
| 2026-05-04 19:18 | 54.85711 | 14.15656 | 24651 ft | 461 kts | 132° |
| 2026-05-04 19:18 | 54.83734 | 14.20061 | 24962 ft | 464 kts | 132° |
| 2026-05-04 19:19 | 54.81745 | 14.24488 | 25301 ft | 466 kts | 132° |
| 2026-05-04 19:19 | 54.79746 | 14.28923 | 25650 ft | 468 kts | 132° |
| 2026-05-04 19:19 | 54.77613 | 14.33187 | 25957 ft | 466 kts | 140° |
| 2026-05-04 19:19 | 54.75152 | 14.36804 | 26253 ft | 461 kts | 150° |
| 2026-05-04 19:20 | 54.72467 | 14.39837 | 26557 ft | 462 kts | 153° |
| 2026-05-04 19:20 | 54.69746 | 14.42818 | 26842 ft | 464 kts | 154° |
| 2026-05-04 19:20 | 54.66935 | 14.45546 | 27120 ft | 462 kts | 158° |
| 2026-05-04 19:20 | 54.64097 | 14.48014 | 27401 ft | 463 kts | 160° |
| 2026-05-04 19:21 | 54.61187 | 14.50432 | 27679 ft | 465 kts | 160° |
| 2026-05-04 19:21 | 54.58243 | 14.52850 | 27945 ft | 466 kts | 160° |
| 2026-05-04 19:21 | 54.55308 | 14.55272 | 28194 ft | 469 kts | 160° |
| 2026-05-04 19:21 | 54.52359 | 14.57729 | 28457 ft | 471 kts | 160° |
| 2026-05-04 19:22 | 54.49446 | 14.60179 | 28699 ft | 473 kts | 160° |
| 2026-05-04 19:22 | 54.46484 | 14.62684 | 28895 ft | 475 kts | 160° |
| 2026-05-04 19:22 | 54.43511 | 14.65205 | 29134 ft | 477 kts | 160° |
| 2026-05-04 19:22 | 54.40530 | 14.67734 | 29381 ft | 478 kts | 160° |
| 2026-05-04 19:23 | 54.37536 | 14.70273 | 29630 ft | 479 kts | 160° |
| 2026-05-04 19:23 | 54.34544 | 14.72806 | 29959 ft | 478 kts | 160° |
| 2026-05-04 19:23 | 54.31566 | 14.75325 | 30323 ft | 476 kts | 160° |
| 2026-05-04 19:23 | 54.28598 | 14.77831 | 30673 ft | 474 kts | 160° |
| 2026-05-04 19:24 | 54.25643 | 14.80319 | 30989 ft | 473 kts | 160° |
| 2026-05-04 19:24 | 54.22687 | 14.82801 | 31288 ft | 472 kts | 160° |
| 2026-05-04 19:24 | 54.19797 | 14.85223 | 31559 ft | 471 kts | 160° |
| 2026-05-04 19:24 | 54.16837 | 14.87698 | 31863 ft | 470 kts | 160° |
| 2026-05-04 19:25 | 54.13903 | 14.90151 | 32159 ft | 468 kts | 160° |
| 2026-05-04 19:25 | 54.10978 | 14.92592 | 32426 ft | 468 kts | 160° |
| 2026-05-04 19:25 | 54.08057 | 14.95025 | 32693 ft | 467 kts | 160° |
| 2026-05-04 19:25 | 54.05136 | 14.97453 | 32950 ft | 466 kts | 160° |
| 2026-05-04 19:26 | 54.02225 | 14.99870 | 33220 ft | 465 kts | 160° |
| 2026-05-04 19:26 | 53.99312 | 15.02282 | 33447 ft | 465 kts | 160° |
| 2026-05-04 19:26 | 53.96419 | 15.04678 | 33885 ft | 458 kts | 160° |
| 2026-05-04 19:26 | 53.93559 | 15.07046 | 34244 ft | 455 kts | 160° |
| 2026-05-04 19:27 | 53.90739 | 15.09372 | 34360 ft | 457 kts | 160° |
| 2026-05-04 19:27 | 53.84980 | 15.14105 | 34619 ft | 460 kts | 160° |
| 2026-05-04 19:27 | 53.82108 | 15.16465 | 34874 ft | 459 kts | 160° |
| 2026-05-04 19:28 | 53.79238 | 15.18822 | 35102 ft | 458 kts | 160° |
| 2026-05-04 19:28 | 53.76370 | 15.21173 | 35268 ft | 458 kts | 160° |
| 2026-05-04 19:28 | 53.73500 | 15.23519 | 35394 ft | 459 kts | 160° |
| 2026-05-04 19:28 | 53.70618 | 15.25871 | 35588 ft | 458 kts | 160° |
| 2026-05-04 19:29 | 53.67746 | 15.28212 | 35789 ft | 458 kts | 160° |
| 2026-05-04 19:29 | 53.64873 | 15.30550 | 35957 ft | 458 kts | 160° |
| 2026-05-04 19:29 | 53.62004 | 15.32883 | 36099 ft | 458 kts | 160° |
| 2026-05-04 19:29 | 53.59129 | 15.35215 | 36227 ft | 459 kts | 160° |
| 2026-05-04 19:30 | 53.56251 | 15.37546 | 36376 ft | 459 kts | 160° |
| 2026-05-04 19:30 | 53.53378 | 15.39870 | 36530 ft | 458 kts | 160° |
| 2026-05-04 19:30 | 53.50509 | 15.42188 | 36689 ft | 458 kts | 160° |
| 2026-05-04 19:30 | 53.47643 | 15.44501 | 36935 ft | 455 kts | 160° |
| 2026-05-04 19:31 | 53.44783 | 15.46804 | 36970 ft | 456 kts | 160° |
| 2026-05-04 19:31 | 53.39079 | 15.51389 | 36976 ft | 451 kts | 160° |
| 2026-05-04 19:32 | 53.33490 | 15.55869 | 36977 ft | 446 kts | 160° |
| 2026-05-04 19:32 | 53.27901 | 15.60333 | 36981 ft | 444 kts | 160° |
| 2026-05-04 19:33 | 53.22327 | 15.64772 | 36981 ft | 443 kts | 160° |
| 2026-05-04 19:33 | 53.16755 | 15.69196 | 36975 ft | 443 kts | 160° |
| 2026-05-04 19:34 | 53.11178 | 15.73609 | 36979 ft | 444 kts | 160° |
| 2026-05-04 19:34 | 53.05582 | 15.78028 | 36970 ft | 446 kts | 159° |
| 2026-05-04 19:35 | 52.99967 | 15.82449 | 36965 ft | 447 kts | 159° |
| 2026-05-04 19:35 | 52.94366 | 15.86846 | 36958 ft | 449 kts | 159° |
| 2026-05-04 19:36 | 52.88703 | 15.91280 | 36955 ft | 450 kts | 159° |
| 2026-05-04 19:36 | 52.83027 | 15.95712 | 36954 ft | 450 kts | 159° |
| 2026-05-04 19:37 | 52.77354 | 16.00127 | 36949 ft | 451 kts | 159° |
| 2026-05-04 19:37 | 52.71714 | 16.04504 | 36944 ft | 450 kts | 159° |
| 2026-05-04 19:38 | 52.66045 | 16.08892 | 36942 ft | 449 kts | 159° |
| 2026-05-04 19:38 | 52.60401 | 16.13243 | 36940 ft | 447 kts | 159° |
| 2026-05-04 19:39 | 52.54767 | 16.17581 | 36944 ft | 446 kts | 159° |
| 2026-05-04 19:39 | 52.49159 | 16.21886 | 36951 ft | 444 kts | 159° |
| 2026-05-04 19:40 | 52.43566 | 16.26168 | 36953 ft | 443 kts | 159° |
| 2026-05-04 19:40 | 52.37971 | 16.30434 | 36956 ft | 442 kts | 159° |
| 2026-05-04 19:41 | 52.32387 | 16.34680 | 36953 ft | 442 kts | 159° |
| 2026-05-04 19:41 | 52.26832 | 16.38894 | 36956 ft | 442 kts | 159° |
| 2026-05-04 19:42 | 52.21239 | 16.43124 | 36954 ft | 443 kts | 159° |
| 2026-05-04 19:42 | 52.15629 | 16.47353 | 36955 ft | 444 kts | 159° |
| 2026-05-04 19:43 | 52.10005 | 16.51586 | 36955 ft | 445 kts | 159° |
| 2026-05-04 19:43 | 52.04375 | 16.55812 | 36955 ft | 446 kts | 159° |
| 2026-05-04 19:44 | 51.98774 | 16.60003 | 36953 ft | 447 kts | 159° |
| 2026-05-04 19:44 | 51.93113 | 16.64226 | 36953 ft | 447 kts | 159° |
| 2026-05-04 19:45 | 51.87444 | 16.68443 | 36955 ft | 449 kts | 159° |
| 2026-05-04 19:45 | 51.81793 | 16.72634 | 36944 ft | 449 kts | 159° |
| 2026-05-04 19:46 | 51.76096 | 16.76850 | 36945 ft | 450 kts | 159° |
| 2026-05-04 19:46 | 51.70393 | 16.81060 | 36944 ft | 451 kts | 159° |
| 2026-05-04 19:47 | 51.64686 | 16.85258 | 36943 ft | 451 kts | 159° |
| 2026-05-04 19:47 | 51.59935 | 16.88743 | 36934 ft | 451 kts | 159° |
| 2026-05-04 19:48 | 51.54216 | 16.92930 | 36946 ft | 452 kts | 159° |
| 2026-05-04 19:48 | 51.47557 | 16.97789 | 36943 ft | 452 kts | 159° |
| 2026-05-04 19:49 | 51.42788 | 17.01261 | 36945 ft | 452 kts | 159° |
| 2026-05-04 19:49 | 51.37058 | 17.05420 | 36944 ft | 453 kts | 159° |
| 2026-05-04 19:50 | 51.31320 | 17.09575 | 36944 ft | 453 kts | 159° |
| 2026-05-04 19:50 | 51.25573 | 17.13725 | 36944 ft | 453 kts | 159° |
| 2026-05-04 19:51 | 51.19819 | 17.17868 | 36942 ft | 453 kts | 159° |
| 2026-05-04 19:51 | 51.14057 | 17.22005 | 36945 ft | 453 kts | 159° |
| 2026-05-04 19:52 | 51.08304 | 17.26123 | 36945 ft | 453 kts | 159° |
| 2026-05-04 19:52 | 51.02546 | 17.30234 | 36946 ft | 454 kts | 159° |
| 2026-05-04 19:53 | 50.96809 | 17.34320 | 36945 ft | 454 kts | 159° |
| 2026-05-04 19:53 | 50.91041 | 17.38418 | 36946 ft | 455 kts | 159° |
| 2026-05-04 19:54 | 50.85254 | 17.42516 | 36945 ft | 456 kts | 158° |
| 2026-05-04 19:54 | 50.79451 | 17.46614 | 36946 ft | 456 kts | 158° |
| 2026-05-04 19:55 | 50.73649 | 17.50703 | 36942 ft | 456 kts | 158° |
| 2026-05-04 19:55 | 50.67879 | 17.54758 | 36956 ft | 456 kts | 158° |
| 2026-05-04 19:56 | 50.62074 | 17.58823 | 36952 ft | 456 kts | 158° |
| 2026-05-04 19:56 | 50.56266 | 17.62880 | 36957 ft | 457 kts | 158° |
| 2026-05-04 19:57 | 50.50453 | 17.66931 | 36958 ft | 457 kts | 158° |
| 2026-05-04 19:57 | 50.44643 | 17.70970 | 36966 ft | 456 kts | 158° |
| 2026-05-04 19:58 | 50.38861 | 17.74980 | 36972 ft | 457 kts | 158° |
| 2026-05-04 19:58 | 50.33038 | 17.79004 | 36981 ft | 457 kts | 158° |
| 2026-05-04 19:59 | 50.27211 | 17.83018 | 36983 ft | 458 kts | 158° |
| 2026-05-04 19:59 | 50.21376 | 17.87032 | 36982 ft | 458 kts | 158° |
| 2026-05-04 20:00 | 50.15543 | 17.91031 | 36985 ft | 458 kts | 158° |
| 2026-05-04 20:00 | 50.09745 | 17.94998 | 36990 ft | 458 kts | 158° |
| 2026-05-04 20:01 | 50.03908 | 17.98980 | 36993 ft | 458 kts | 158° |
| 2026-05-04 20:01 | 49.98101 | 18.03097 | 36989 ft | 459 kts | 156° |
| 2026-05-04 20:02 | 49.92336 | 18.07377 | 36992 ft | 459 kts | 156° |
| 2026-05-04 20:02 | 49.86601 | 18.11629 | 36992 ft | 459 kts | 156° |
| 2026-05-04 20:03 | 49.80827 | 18.15871 | 36990 ft | 459 kts | 156° |
| 2026-05-04 20:03 | 49.75048 | 18.20086 | 36991 ft | 459 kts | 156° |
| 2026-05-04 20:04 | 49.69272 | 18.24287 | 36989 ft | 459 kts | 156° |
| 2026-05-04 20:04 | 49.63529 | 18.28454 | 36992 ft | 459 kts | 156° |
| 2026-05-04 20:05 | 49.57757 | 18.32632 | 37001 ft | 458 kts | 156° |
| 2026-05-04 20:05 | 49.51977 | 18.36803 | 37003 ft | 458 kts | 156° |
| 2026-05-04 20:06 | 49.46205 | 18.40959 | 36999 ft | 458 kts | 156° |
| 2026-05-04 20:06 | 49.40431 | 18.45106 | 37009 ft | 457 kts | 156° |
| 2026-05-04 20:07 | 49.34618 | 18.48884 | 37021 ft | 455 kts | 161° |
| 2026-05-04 20:07 | 49.28621 | 18.52040 | 37010 ft | 455 kts | 163° |
| 2026-05-04 20:08 | 49.22619 | 18.55133 | 37020 ft | 454 kts | 162° |
| 2026-05-04 20:08 | 49.16640 | 18.58280 | 37023 ft | 455 kts | 162° |
| 2026-05-04 20:09 | 49.10666 | 18.61460 | 37020 ft | 455 kts | 162° |
| 2026-05-04 20:09 | 49.04683 | 18.64653 | 37023 ft | 455 kts | 162° |
| 2026-05-04 20:10 | 48.98732 | 18.67821 | 37018 ft | 456 kts | 162° |
| 2026-05-04 20:10 | 48.92736 | 18.71004 | 37020 ft | 457 kts | 162° |
| 2026-05-04 20:11 | 48.86736 | 18.74177 | 37020 ft | 457 kts | 162° |
| 2026-05-04 20:11 | 48.80721 | 18.77351 | 37019 ft | 458 kts | 162° |
| 2026-05-04 20:12 | 48.74708 | 18.80518 | 37017 ft | 458 kts | 162° |
| 2026-05-04 20:12 | 48.68673 | 18.83686 | 37017 ft | 458 kts | 162° |
| 2026-05-04 20:13 | 48.62644 | 18.86845 | 37023 ft | 458 kts | 162° |
| 2026-05-04 20:13 | 48.56621 | 18.89991 | 37031 ft | 457 kts | 162° |
| 2026-05-04 20:14 | 48.50643 | 18.93106 | 37040 ft | 457 kts | 162° |
| 2026-05-04 20:14 | 48.44633 | 18.96230 | 37044 ft | 456 kts | 162° |
| 2026-05-04 20:15 | 48.38623 | 18.99346 | 37031 ft | 456 kts | 162° |
| 2026-05-04 20:15 | 48.32622 | 19.02450 | 37033 ft | 456 kts | 162° |
| 2026-05-04 20:16 | 48.26618 | 19.05547 | 37043 ft | 456 kts | 162° |
| 2026-05-04 20:16 | 48.20613 | 19.08638 | 37044 ft | 456 kts | 162° |
| 2026-05-04 20:17 | 48.14635 | 19.11707 | 37044 ft | 456 kts | 162° |
| 2026-05-04 20:17 | 48.08627 | 19.14782 | 37046 ft | 456 kts | 162° |
| 2026-05-04 20:18 | 48.02613 | 19.17852 | 37046 ft | 456 kts | 162° |
| 2026-05-04 20:18 | 47.96598 | 19.20918 | 37046 ft | 457 kts | 161° |
| 2026-05-04 20:19 | 47.90596 | 19.23971 | 37050 ft | 458 kts | 161° |
| 2026-05-04 20:19 | 47.84552 | 19.27035 | 37048 ft | 459 kts | 161° |
| 2026-05-04 20:20 | 47.78492 | 19.30100 | 37048 ft | 460 kts | 161° |
| 2026-05-04 20:20 | 47.72802 | 19.32971 | 37055 ft | 461 kts | 161° |
| 2026-05-04 20:21 | 47.66866 | 19.35960 | 37054 ft | 461 kts | 161° |
| 2026-05-04 20:21 | 47.57727 | 19.40547 | 37049 ft | 462 kts | 161° |
| 2026-05-04 20:22 | 47.51663 | 19.43580 | 37045 ft | 462 kts | 161° |
| 2026-05-04 20:22 | 47.45531 | 19.46641 | 37048 ft | 462 kts | 161° |
| 2026-05-04 20:23 | 47.39478 | 19.49654 | 37046 ft | 462 kts | 161° |
| 2026-05-04 20:23 | 47.33388 | 19.52678 | 37053 ft | 462 kts | 161° |
| 2026-05-04 20:24 | 47.27288 | 19.55702 | 37057 ft | 461 kts | 161° |
| 2026-05-04 20:24 | 47.21203 | 19.58709 | 37054 ft | 460 kts | 161° |
| 2026-05-04 20:25 | 47.15165 | 19.61686 | 37062 ft | 460 kts | 161° |
| 2026-05-04 20:25 | 47.09099 | 19.64670 | 37067 ft | 460 kts | 161° |
| 2026-05-04 20:26 | 47.03022 | 19.67652 | 37066 ft | 460 kts | 161° |
| 2026-05-04 20:26 | 46.96955 | 19.70622 | 37075 ft | 459 kts | 161° |
| 2026-05-04 20:27 | 46.90877 | 19.73590 | 37073 ft | 460 kts | 161° |
| 2026-05-04 20:27 | 46.84844 | 19.76530 | 37073 ft | 460 kts | 161° |
| 2026-05-04 20:28 | 46.78767 | 19.79484 | 37073 ft | 460 kts | 161° |
| 2026-05-04 20:28 | 46.72683 | 19.82434 | 37072 ft | 461 kts | 161° |
| 2026-05-04 20:29 | 46.66589 | 19.85382 | 37076 ft | 462 kts | 161° |
| 2026-05-04 20:29 | 46.60476 | 19.88332 | 37076 ft | 463 kts | 161° |
| 2026-05-04 20:30 | 46.54344 | 19.91283 | 37069 ft | 464 kts | 161° |
| 2026-05-04 20:30 | 46.48250 | 19.94209 | 37060 ft | 465 kts | 161° |
| 2026-05-04 20:31 | 46.42082 | 19.97166 | 37066 ft | 465 kts | 161° |
| 2026-05-04 20:31 | 46.35934 | 20.00105 | 37067 ft | 466 kts | 161° |
| 2026-05-04 20:32 | 46.29779 | 20.03041 | 37064 ft | 466 kts | 161° |
| 2026-05-04 20:32 | 46.23626 | 20.05969 | 37063 ft | 465 kts | 161° |
| 2026-05-04 20:33 | 46.17468 | 20.08892 | 37066 ft | 465 kts | 161° |
| 2026-05-04 20:33 | 46.11417 | 20.12195 | 37069 ft | 465 kts | 157° |
| 2026-05-04 20:34 | 46.05458 | 20.15817 | 37064 ft | 464 kts | 156° |
| 2026-05-04 20:34 | 45.99541 | 20.19421 | 37065 ft | 464 kts | 156° |
| 2026-05-04 20:35 | 45.93582 | 20.22994 | 37064 ft | 464 kts | 157° |
| 2026-05-04 20:35 | 45.87610 | 20.26537 | 37070 ft | 463 kts | 157° |
| 2026-05-04 20:36 | 45.81657 | 20.30053 | 37075 ft | 462 kts | 157° |
| 2026-05-04 20:36 | 45.75715 | 20.33557 | 37074 ft | 462 kts | 157° |
| 2026-05-04 20:37 | 45.70768 | 20.36471 | 37075 ft | 462 kts | 157° |
| 2026-05-04 20:37 | 45.64809 | 20.39974 | 37076 ft | 463 kts | 157° |
| 2026-05-04 20:38 | 45.58845 | 20.43469 | 37074 ft | 463 kts | 157° |
| 2026-05-04 20:38 | 45.52874 | 20.46959 | 37075 ft | 464 kts | 157° |
| 2026-05-04 20:39 | 45.46891 | 20.50451 | 37075 ft | 465 kts | 157° |
| 2026-05-04 20:39 | 45.40898 | 20.53941 | 37072 ft | 465 kts | 157° |
| 2026-05-04 20:40 | 45.34903 | 20.57422 | 37076 ft | 465 kts | 157° |
| 2026-05-04 20:40 | 45.28942 | 20.60874 | 37075 ft | 465 kts | 157° |
| 2026-05-04 20:41 | 45.22944 | 20.64342 | 37072 ft | 465 kts | 157° |
| 2026-05-04 20:41 | 45.16950 | 20.67798 | 37077 ft | 465 kts | 157° |
| 2026-05-04 20:42 | 45.10940 | 20.71257 | 37073 ft | 465 kts | 157° |
| 2026-05-04 20:42 | 45.04939 | 20.74702 | 37075 ft | 465 kts | 157° |
| 2026-05-04 20:43 | 44.98939 | 20.78137 | 37074 ft | 465 kts | 157° |
| 2026-05-04 20:43 | 44.92979 | 20.81545 | 37073 ft | 465 kts | 157° |
| 2026-05-04 20:44 | 44.86971 | 20.84971 | 37072 ft | 465 kts | 157° |
| 2026-05-04 20:44 | 44.80958 | 20.88393 | 37074 ft | 465 kts | 157° |
| 2026-05-04 20:45 | 44.74955 | 20.91801 | 37081 ft | 464 kts | 158° |
| 2026-05-04 20:45 | 44.68964 | 20.95194 | 37083 ft | 464 kts | 158° |
| 2026-05-04 20:46 | 44.63014 | 20.98554 | 37082 ft | 464 kts | 158° |
| 2026-05-04 20:46 | 44.57023 | 21.01934 | 37083 ft | 464 kts | 158° |
| 2026-05-04 20:47 | 44.51036 | 21.05304 | 37082 ft | 463 kts | 158° |
| 2026-05-04 20:47 | 44.45053 | 21.08661 | 37084 ft | 463 kts | 158° |
| 2026-05-04 20:48 | 44.39070 | 21.12012 | 37083 ft | 463 kts | 158° |
| 2026-05-04 20:48 | 44.33089 | 21.15357 | 37097 ft | 463 kts | 158° |
| 2026-05-04 20:49 | 44.27102 | 21.18698 | 37098 ft | 462 kts | 158° |
| 2026-05-04 20:49 | 44.22117 | 21.21474 | 37086 ft | 463 kts | 158° |
| 2026-05-04 20:50 | 44.19925 | 21.22692 | 37100 ft | 463 kts | 158° |
| 2026-05-04 20:50 | 44.13921 | 21.26023 | 37098 ft | 463 kts | 158° |
| 2026-05-04 20:51 | 44.07922 | 21.29344 | 37091 ft | 463 kts | 158° |
| 2026-05-04 20:51 | 44.01928 | 21.32656 | 37084 ft | 463 kts | 158° |
| 2026-05-04 20:52 | 43.95973 | 21.35939 | 37095 ft | 463 kts | 158° |
| 2026-05-04 20:52 | 43.89990 | 21.39232 | 37105 ft | 463 kts | 158° |
| 2026-05-04 20:53 | 43.83998 | 21.42522 | 37100 ft | 462 kts | 158° |
| 2026-05-04 20:53 | 43.78019 | 21.45796 | 37102 ft | 463 kts | 158° |
| 2026-05-04 20:54 | 43.72033 | 21.49068 | 37109 ft | 462 kts | 158° |
| 2026-05-04 20:54 | 43.66040 | 21.52336 | 37109 ft | 463 kts | 158° |
| 2026-05-04 20:55 | 43.60079 | 21.55582 | 37109 ft | 463 kts | 158° |
| 2026-05-04 20:55 | 43.54078 | 21.58841 | 37110 ft | 463 kts | 158° |
| 2026-05-04 20:56 | 43.48075 | 21.62094 | 37113 ft | 463 kts | 158° |
| 2026-05-04 20:56 | 43.42071 | 21.65341 | 37110 ft | 464 kts | 158° |
| 2026-05-04 20:57 | 43.36050 | 21.68590 | 37104 ft | 464 kts | 158° |
| 2026-05-04 20:57 | 43.30078 | 21.71807 | 37101 ft | 464 kts | 158° |
| 2026-05-04 20:58 | 43.24071 | 21.75035 | 37103 ft | 463 kts | 158° |
| 2026-05-04 20:58 | 43.18060 | 21.78258 | 37102 ft | 463 kts | 158° |
| 2026-05-04 20:59 | 43.12058 | 21.81469 | 37109 ft | 463 kts | 158° |
| 2026-05-04 20:59 | 43.06055 | 21.84673 | 37106 ft | 462 kts | 158° |
| 2026-05-04 21:00 | 43.00058 | 21.87869 | 37113 ft | 462 kts | 158° |
| 2026-05-04 21:00 | 42.94100 | 21.91039 | 37108 ft | 463 kts | 158° |
| 2026-05-04 21:01 | 42.88090 | 21.94227 | 37116 ft | 463 kts | 158° |
| 2026-05-04 21:01 | 42.82081 | 21.97408 | 37124 ft | 463 kts | 159° |
| 2026-05-04 21:02 | 42.76070 | 22.00585 | 37120 ft | 463 kts | 159° |
| 2026-05-04 21:02 | 42.70093 | 22.03736 | 37111 ft | 463 kts | 159° |
| 2026-05-04 21:03 | 42.64078 | 22.06902 | 37112 ft | 463 kts | 159° |
| 2026-05-04 21:03 | 42.58072 | 22.10057 | 37119 ft | 462 kts | 159° |
| 2026-05-04 21:04 | 42.52066 | 22.13206 | 37120 ft | 462 kts | 159° |
| 2026-05-04 21:04 | 42.46074 | 22.16338 | 37118 ft | 461 kts | 159° |
| 2026-05-04 21:05 | 42.40080 | 22.19467 | 37119 ft | 462 kts | 159° |
| 2026-05-04 21:05 | 42.34123 | 22.22571 | 37121 ft | 461 kts | 159° |
| 2026-05-04 21:06 | 42.28007 | 22.25129 | 37125 ft | 460 kts | 170° |
| 2026-05-04 21:06 | 42.21698 | 22.26562 | 37133 ft | 460 kts | 171° |
| 2026-05-04 21:07 | 42.15383 | 22.27968 | 37133 ft | 460 kts | 171° |
| 2026-05-04 21:07 | 42.09069 | 22.29423 | 37128 ft | 460 kts | 170° |
| 2026-05-04 21:08 | 42.02748 | 22.30904 | 37129 ft | 461 kts | 170° |
| 2026-05-04 21:08 | 41.96464 | 22.32380 | 37128 ft | 461 kts | 170° |
| 2026-05-04 21:09 | 41.90125 | 22.33865 | 37133 ft | 462 kts | 170° |
| 2026-05-04 21:09 | 41.83788 | 22.35346 | 37132 ft | 463 kts | 171° |
| 2026-05-04 21:10 | 41.77430 | 22.36828 | 37129 ft | 465 kts | 171° |
| 2026-05-04 21:10 | 41.71081 | 22.38304 | 37136 ft | 466 kts | 171° |
| 2026-05-04 21:11 | 41.64684 | 22.39789 | 37133 ft | 467 kts | 171° |
| 2026-05-04 21:11 | 41.58268 | 22.41276 | 37128 ft | 468 kts | 171° |
| 2026-05-04 21:12 | 41.51850 | 22.42759 | 37128 ft | 468 kts | 171° |
| 2026-05-04 21:12 | 41.45417 | 22.44243 | 37130 ft | 469 kts | 171° |
| 2026-05-04 21:13 | 41.38976 | 22.45726 | 37128 ft | 469 kts | 171° |
| 2026-05-04 21:13 | 41.32542 | 22.47204 | 37127 ft | 469 kts | 171° |
| 2026-05-04 21:14 | 41.26103 | 22.48680 | 37132 ft | 469 kts | 171° |
| 2026-05-04 21:14 | 41.19697 | 22.50147 | 37129 ft | 469 kts | 171° |
| 2026-05-04 21:15 | 41.13253 | 22.51618 | 37125 ft | 469 kts | 171° |
| 2026-05-04 21:15 | 41.06766 | 22.52556 | 37124 ft | 468 kts | 176° |
| 2026-05-04 21:16 | 41.00260 | 22.53155 | 37117 ft | 469 kts | 177° |
| 2026-05-04 21:16 | 40.93749 | 22.53781 | 37122 ft | 469 kts | 176° |
| 2026-05-04 21:17 | 40.87234 | 22.54464 | 37119 ft | 469 kts | 176° |
| 2026-05-04 21:17 | 40.80774 | 22.55160 | 37121 ft | 469 kts | 176° |
| 2026-05-04 21:18 | 40.74228 | 22.55865 | 37118 ft | 469 kts | 176° |
| 2026-05-04 21:18 | 40.67750 | 22.56560 | 37111 ft | 469 kts | 176° |
| 2026-05-04 21:19 | 40.61228 | 22.57257 | 37108 ft | 470 kts | 176° |
| 2026-05-04 21:19 | 40.54704 | 22.57953 | 37113 ft | 470 kts | 176° |
| 2026-05-04 21:20 | 40.48220 | 22.58642 | 37109 ft | 471 kts | 176° |
| 2026-05-04 21:20 | 40.41682 | 22.59338 | 37113 ft | 472 kts | 176° |
| 2026-05-04 21:21 | 40.35110 | 22.60047 | 37118 ft | 472 kts | 174° |
| 2026-05-04 21:21 | 40.28766 | 22.62231 | 37120 ft | 473 kts | 157° |
| 2026-05-04 21:22 | 40.22753 | 22.65645 | 37117 ft | 474 kts | 156° |
| 2026-05-04 21:22 | 40.16701 | 22.69094 | 37119 ft | 474 kts | 157° |
| 2026-05-04 21:23 | 40.10628 | 22.72491 | 37120 ft | 475 kts | 157° |
| 2026-05-04 21:23 | 40.04536 | 22.75861 | 37122 ft | 475 kts | 157° |
| 2026-05-04 21:24 | 39.98495 | 22.79187 | 37127 ft | 474 kts | 157° |
| 2026-05-04 21:24 | 39.92369 | 22.82556 | 37118 ft | 475 kts | 157° |
| 2026-05-04 21:25 | 39.87312 | 22.85334 | 37123 ft | 475 kts | 157° |
| 2026-05-04 21:25 | 39.80206 | 22.89230 | 37121 ft | 476 kts | 158° |
| 2026-05-04 21:26 | 39.75123 | 22.92012 | 37121 ft | 477 kts | 158° |
| 2026-05-04 21:26 | 39.68992 | 22.95363 | 37118 ft | 478 kts | 158° |
| 2026-05-04 21:27 | 39.62870 | 22.98701 | 37116 ft | 478 kts | 158° |
| 2026-05-04 21:27 | 39.56707 | 23.02054 | 37107 ft | 479 kts | 158° |
| 2026-05-04 21:28 | 39.50606 | 23.05367 | 37115 ft | 479 kts | 158° |
| 2026-05-04 21:28 | 39.44453 | 23.08703 | 37112 ft | 479 kts | 158° |
| 2026-05-04 21:29 | 39.38307 | 23.12028 | 37112 ft | 478 kts | 158° |
| 2026-05-04 21:29 | 39.32175 | 23.15340 | 37072 ft | 478 kts | 158° |
| 2026-05-04 21:30 | 39.29065 | 23.17018 | 36538 ft | 485 kts | 158° |
| 2026-05-04 21:30 | 39.25962 | 23.18689 | 35982 ft | 483 kts | 158° |
| 2026-05-04 21:30 | 39.22886 | 23.20344 | 35307 ft | 484 kts | 158° |
| 2026-05-04 21:30 | 39.19765 | 23.22022 | 34616 ft | 486 kts | 158° |
| 2026-05-04 21:31 | 39.13508 | 23.25379 | 33189 ft | 489 kts | 157° |
| 2026-05-04 21:31 | 39.10354 | 23.27071 | 32422 ft | 490 kts | 157° |
| 2026-05-04 21:31 | 39.07198 | 23.28761 | 31638 ft | 490 kts | 157° |
| 2026-05-04 21:32 | 39.04045 | 23.30450 | 30864 ft | 490 kts | 157° |
| 2026-05-04 21:32 | 39.00916 | 23.32123 | 30328 ft | 484 kts | 157° |
| 2026-05-04 21:32 | 38.97818 | 23.33778 | 29755 ft | 480 kts | 157° |
| 2026-05-04 21:32 | 38.94741 | 23.35420 | 29176 ft | 475 kts | 157° |
| 2026-05-04 21:33 | 38.91705 | 23.37038 | 28601 ft | 471 kts | 157° |
| 2026-05-04 21:33 | 38.88694 | 23.38641 | 28032 ft | 466 kts | 157° |
| 2026-05-04 21:33 | 38.85703 | 23.40233 | 27454 ft | 462 kts | 157° |
| 2026-05-04 21:33 | 38.82783 | 23.41784 | 26904 ft | 458 kts | 157° |
| 2026-05-04 21:34 | 38.79849 | 23.43343 | 26340 ft | 454 kts | 157° |
| 2026-05-04 21:34 | 38.76941 | 23.44887 | 25785 ft | 450 kts | 156° |
| 2026-05-04 21:34 | 38.74060 | 23.46415 | 25228 ft | 446 kts | 156° |
| 2026-05-04 21:34 | 38.71196 | 23.47932 | 24675 ft | 442 kts | 156° |
| 2026-05-04 21:35 | 38.68357 | 23.49434 | 24121 ft | 439 kts | 156° |
| 2026-05-04 21:35 | 38.65542 | 23.50922 | 23569 ft | 435 kts | 156° |
| 2026-05-04 21:35 | 38.62753 | 23.52396 | 23022 ft | 432 kts | 156° |
| 2026-05-04 21:35 | 38.59983 | 23.53859 | 22473 ft | 428 kts | 156° |
| 2026-05-04 21:36 | 38.57234 | 23.55309 | 21936 ft | 425 kts | 156° |
| 2026-05-04 21:36 | 38.54547 | 23.56726 | 21405 ft | 422 kts | 156° |
| 2026-05-04 21:36 | 38.51835 | 23.58153 | 20875 ft | 419 kts | 156° |
| 2026-05-04 21:36 | 38.49146 | 23.59568 | 20342 ft | 417 kts | 156° |
| 2026-05-04 21:37 | 38.46466 | 23.60977 | 19810 ft | 414 kts | 156° |
| 2026-05-04 21:37 | 38.43804 | 23.62376 | 19281 ft | 412 kts | 156° |
| 2026-05-04 21:37 | 38.41160 | 23.63764 | 18750 ft | 410 kts | 156° |
| 2026-05-04 21:37 | 38.38534 | 23.65141 | 18221 ft | 408 kts | 156° |
| 2026-05-04 21:38 | 38.35908 | 23.66518 | 17693 ft | 406 kts | 156° |
| 2026-05-04 21:38 | 38.33307 | 23.67881 | 17170 ft | 404 kts | 156° |
| 2026-05-04 21:38 | 38.30704 | 23.69243 | 16636 ft | 403 kts | 156° |
| 2026-05-04 21:38 | 38.28122 | 23.70594 | 16112 ft | 401 kts | 156° |
| 2026-05-04 21:39 | 38.25542 | 23.71942 | 15592 ft | 400 kts | 156° |
| 2026-05-04 21:39 | 38.22977 | 23.73281 | 15084 ft | 398 kts | 156° |
| 2026-05-04 21:39 | 38.20438 | 23.74582 | 14557 ft | 398 kts | 160° |
| 2026-05-04 21:39 | 38.17724 | 23.75150 | 14019 ft | 397 kts | 183° |
| 2026-05-04 21:40 | 38.15039 | 23.74502 | 13519 ft | 391 kts | 201° |
| 2026-05-04 21:40 | 38.12702 | 23.72931 | 13257 ft | 368 kts | 216° |
| 2026-05-04 21:40 | 38.10675 | 23.71212 | 13424 ft | 330 kts | 217° |
| 2026-05-04 21:40 | 38.08870 | 23.69667 | 13418 ft | 301 kts | 217° |
| 2026-05-04 21:41 | 38.07195 | 23.68232 | 13262 ft | 280 kts | 218° |
| 2026-05-04 21:41 | 38.05631 | 23.66900 | 13134 ft | 262 kts | 218° |
| 2026-05-04 21:41 | 38.04158 | 23.65655 | 12991 ft | 245 kts | 218° |
| 2026-05-04 21:41 | 38.02771 | 23.64482 | 12725 ft | 237 kts | 218° |
| 2026-05-04 21:42 | 38.01404 | 23.63326 | 12238 ft | 238 kts | 218° |
| 2026-05-04 21:42 | 38.00033 | 23.62169 | 11870 ft | 234 kts | 218° |
| 2026-05-04 21:42 | 37.98679 | 23.61031 | 11436 ft | 234 kts | 218° |
| 2026-05-04 21:42 | 37.97326 | 23.59895 | 11050 ft | 231 kts | 217° |
| 2026-05-04 21:43 | 37.96004 | 23.58788 | 10655 ft | 228 kts | 217° |
| 2026-05-04 21:43 | 37.94673 | 23.57675 | 10205 ft | 230 kts | 216° |
| 2026-05-04 21:43 | 37.93336 | 23.56558 | 9785 ft | 229 kts | 216° |
| 2026-05-04 21:43 | 37.92019 | 23.55459 | 9514 ft | 219 kts | 216° |
| 2026-05-04 21:44 | 37.90768 | 23.54417 | 9241 ft | 214 kts | 216° |
| 2026-05-04 21:44 | 37.89516 | 23.53374 | 8912 ft | 214 kts | 215° |
| 2026-05-04 21:44 | 37.88277 | 23.52340 | 8628 ft | 212 kts | 216° |
| 2026-05-04 21:44 | 37.87059 | 23.51322 | 8404 ft | 208 kts | 216° |
| 2026-05-04 21:45 | 37.85871 | 23.50333 | 8190 ft | 207 kts | 216° |
| 2026-05-04 21:45 | 37.84665 | 23.49329 | 8010 ft | 208 kts | 216° |
| 2026-05-04 21:45 | 37.83456 | 23.48322 | 7803 ft | 209 kts | 216° |
| 2026-05-04 21:45 | 37.82241 | 23.47312 | 7602 ft | 209 kts | 216° |
| 2026-05-04 21:46 | 37.80958 | 23.46425 | 7369 ft | 213 kts | 195° |
| 2026-05-04 21:46 | 37.79503 | 23.46270 | 7179 ft | 210 kts | 171° |
| 2026-05-04 21:46 | 37.78119 | 23.46783 | 6957 ft | 205 kts | 147° |
| 2026-05-04 21:46 | 37.77023 | 23.47872 | 6742 ft | 199 kts | 126° |
| 2026-05-04 21:47 | 37.76270 | 23.49280 | 6523 ft | 193 kts | 109° |
| 2026-05-04 21:47 | 37.75921 | 23.50873 | 6306 ft | 185 kts | 91° |
| 2026-05-04 21:47 | 37.75770 | 23.52474 | 6096 ft | 183 kts | 90° |
| 2026-05-04 21:47 | 37.75637 | 23.54066 | 5910 ft | 182 kts | 90° |
| 2026-05-04 21:48 | 37.75504 | 23.55652 | 5698 ft | 180 kts | 90° |
| 2026-05-04 21:48 | 37.75376 | 23.57216 | 5512 ft | 177 kts | 90° |
| 2026-05-04 21:48 | 37.75247 | 23.58758 | 5314 ft | 176 kts | 90° |
| 2026-05-04 21:48 | 37.75120 | 23.60286 | 5139 ft | 175 kts | 91° |
| 2026-05-04 21:49 | 37.74991 | 23.61832 | 4967 ft | 178 kts | 91° |
| 2026-05-04 21:49 | 37.74858 | 23.63407 | 4786 ft | 182 kts | 91° |
| 2026-05-04 21:49 | 37.74721 | 23.65009 | 4580 ft | 183 kts | 92° |
| 2026-05-04 21:49 | 37.74583 | 23.66611 | 4363 ft | 183 kts | 92° |
| 2026-05-04 21:50 | 37.74447 | 23.68202 | 4170 ft | 182 kts | 92° |
| 2026-05-04 21:50 | 37.74317 | 23.69755 | 4046 ft | 176 kts | 92° |
| 2026-05-04 21:50 | 37.74185 | 23.71282 | 3956 ft | 174 kts | 91° |
| 2026-05-04 21:50 | 37.74227 | 23.72813 | 3896 ft | 175 kts | 76° |
| 2026-05-04 21:51 | 37.74586 | 23.74286 | 3821 ft | 176 kts | 60° |
| 2026-05-04 21:51 | 37.75241 | 23.75562 | 3731 ft | 171 kts | 43° |
| 2026-05-04 21:51 | 37.76125 | 23.76540 | 3665 ft | 166 kts | 35° |
| 2026-05-04 21:51 | 37.77015 | 23.77411 | 3590 ft | 159 kts | 34° |
| 2026-05-04 21:52 | 37.77860 | 23.78224 | 3541 ft | 151 kts | 34° |
| 2026-05-04 21:52 | 37.78694 | 23.79021 | 3363 ft | 149 kts | 34° |
| 2026-05-04 21:52 | 37.79515 | 23.79807 | 3200 ft | 148 kts | 34° |
| 2026-05-04 21:52 | 37.80333 | 23.80588 | 3185 ft | 149 kts | 34° |
| 2026-05-04 21:53 | 37.81176 | 23.81394 | 2993 ft | 152 kts | 34° |
| 2026-05-04 21:53 | 37.82021 | 23.82201 | 2788 ft | 151 kts | 34° |
| 2026-05-04 21:53 | 37.82855 | 23.83000 | 2593 ft | 150 kts | 34° |
| 2026-05-04 21:53 | 37.83690 | 23.83799 | 2402 ft | 151 kts | 34° |
| 2026-05-04 21:54 | 37.84533 | 23.84604 | 2199 ft | 152 kts | 35° |
| 2026-05-04 21:54 | 37.85375 | 23.85409 | 1996 ft | 151 kts | 35° |
| 2026-05-04 21:54 | 37.86202 | 23.86197 | 1767 ft | 151 kts | 35° |
| 2026-05-04 21:54 | 37.87041 | 23.86999 | 1574 ft | 151 kts | 35° |
| 2026-05-04 21:55 | 37.87878 | 23.87796 | 1446 ft | 150 kts | 37° |
| 2026-05-04 21:55 | 37.88704 | 23.88620 | 1295 ft | 151 kts | 37° |
| 2026-05-04 21:55 | 37.89547 | 23.89410 | 1120 ft | 148 kts | 33° |
| 2026-05-04 21:55 | 37.90360 | 23.90174 | 995 ft | 149 kts | 38° |
| 2026-05-04 21:56 | 37.91187 | 23.90990 | 715 ft | 151 kts | 37° |
| 2026-05-04 21:56 | 37.92018 | 23.91786 | 430 ft | 146 kts | 37° |
| 2026-05-04 21:56 | 37.92818 | 23.92517 | 302 ft | 133 kts | 36° |
| 2026-05-04 21:56 | 37.93400 | 23.93068 | 288 ft | 63 kts | 34° |
| 2026-05-04 21:57 | 37.93608 | 23.93368 | 291 ft | 37 kts | 68° |
| 2026-05-04 21:57 | 37.93645 | 23.93486 | 295 ft | 0 kts | 69° |
| 2026-05-04 21:57 | 37.93655 | 23.93522 | 296 ft | 6 kts | 69° |
| 2026-05-04 21:57 | 37.93669 | 23.93569 | 297 ft | 6 kts | 70° |
| 2026-05-04 21:58 | 37.93669 | 23.93617 | 298 ft | 6 kts | 102° |
| 2026-05-04 21:58 | 37.93650 | 23.93663 | 299 ft | 7 kts | 134° |
| 2026-05-04 21:58 | 37.93597 | 23.93672 | 301 ft | 8 kts | 193° |
| 2026-05-04 21:58 | 37.93547 | 23.93641 | 301 ft | 8 kts | 212° |
| 2026-05-04 21:59 | 37.93500 | 23.93608 | 301 ft | 8 kts | 201° |
| 2026-05-04 21:59 | 37.93449 | 23.93612 | 299 ft | 7 kts | 153° |
| 2026-05-04 21:59 | 37.93411 | 23.93668 | 300 ft | 10 kts | 122° |
| 2026-05-04 21:59 | 37.93371 | 23.93736 | 300 ft | 9 kts | 128° |
| 2026-05-04 22:00 | 37.93331 | 23.93798 | 300 ft | 9 kts | 133° |
| 2026-05-04 22:00 | 37.93279 | 23.93834 | 300 ft | 9 kts | 165° |
| 2026-05-04 22:00 | 37.93222 | 23.93849 | 300 ft | 8 kts | 168° |
| 2026-05-04 22:00 | 37.93172 | 23.93882 | 300 ft | 8 kts | 140° |
| 2026-05-04 22:01 | 37.93136 | 23.93934 | 300 ft | 8 kts | 129° |
| 2026-05-04 22:01 | 37.93104 | 23.93988 | 300 ft | 8 kts | 124° |
| 2026-05-04 22:01 | 37.93073 | 23.94041 | 300 ft | 7 kts | 128° |
| 2026-05-04 22:01 | 37.93046 | 23.94096 | 300 ft | 7 kts | 104° |
| 2026-05-04 22:02 | 37.93067 | 23.94149 | 300 ft | 7 kts | 41° |
| 2026-05-04 22:02 | 37.93105 | 23.94186 | 301 ft | 7 kts | 38° |
| 2026-05-04 22:02 | 37.93111 | 23.94192 | 300 ft | 0 kts | 37° |